createdAt,value
2017-08-01T00:00:19.460Z,935.92
2017-08-01T00:00:47.600Z,935.94
2017-08-01T00:01:15.769Z,935.94
2017-08-01T00:01:43.856Z,935.97
2017-08-01T00:02:12.263Z,935.91
2017-08-01T00:02:40.311Z,935.93
2017-08-01T00:03:08.443Z,935.94
2017-08-01T00:03:36.499Z,935.93
2017-08-01T00:04:04.707Z,935.93
2017-08-01T00:04:32.715Z,935.9
2017-08-01T00:05:00.840Z,935.92
2017-08-01T00:05:29.073Z,935.9
2017-08-01T00:05:57.165Z,935.93
2017-08-01T00:06:25.312Z,935.91
2017-08-01T00:06:53.435Z,935.94
2017-08-01T00:07:21.604Z,935.89
2017-08-01T00:07:49.771Z,935.9
2017-08-01T00:08:17.800Z,935.89
2017-08-01T00:08:46.012Z,935.9
2017-08-01T00:09:14.154Z,935.89
2017-08-01T00:09:42.379Z,935.91
2017-08-01T00:10:10.589Z,935.93
2017-08-01T00:10:38.785Z,935.94
2017-08-01T00:11:06.980Z,935.91
2017-08-01T00:11:35.114Z,935.91
2017-08-01T00:12:03.263Z,935.89
2017-08-01T00:12:31.419Z,935.9
2017-08-01T00:12:59.309Z,935.93
2017-08-01T00:13:27.505Z,935.93
2017-08-01T00:13:55.908Z,935.91
2017-08-01T00:14:23.854Z,935.95
2017-08-01T00:14:52.036Z,935.92
2017-08-01T00:15:20.123Z,935.95
2017-08-01T00:15:48.269Z,935.92
2017-08-01T00:16:16.463Z,935.91
2017-08-01T00:16:44.547Z,935.9
2017-08-01T00:17:12.819Z,935.95
2017-08-01T00:17:41.049Z,935.91
2017-08-01T00:18:09.262Z,935.92
2017-08-01T00:18:37.345Z,935.91
2017-08-01T00:19:05.469Z,935.92
2017-08-01T00:19:33.677Z,935.92
2017-08-01T00:20:01.912Z,935.93
2017-08-01T00:20:29.919Z,935.89
2017-08-01T00:20:58.133Z,935.87
2017-08-01T00:21:26.366Z,935.95
2017-08-01T00:21:54.483Z,935.87
2017-08-01T00:22:22.699Z,935.9
2017-08-01T00:22:50.759Z,935.89
2017-08-01T00:23:18.946Z,935.9
2017-08-01T00:23:47.033Z,935.91
2017-08-01T00:24:15.092Z,935.88
2017-08-01T00:24:43.188Z,935.86
2017-08-01T00:25:11.286Z,935.88
2017-08-01T00:25:39.386Z,935.89
2017-08-01T00:26:08.290Z,935.88
2017-08-01T00:26:36.407Z,935.87
2017-08-01T00:27:04.538Z,935.85
2017-08-01T00:27:32.747Z,935.88
2017-08-01T00:28:00.864Z,935.85
2017-08-01T00:28:28.890Z,935.86
2017-08-01T00:28:57.062Z,935.88
2017-08-01T00:29:25.196Z,935.9
2017-08-01T00:29:53.342Z,935.88
2017-08-01T00:30:21.510Z,935.89
2017-08-01T00:30:49.508Z,935.86
2017-08-01T00:31:17.659Z,935.87
2017-08-01T00:31:45.916Z,935.87
2017-08-01T00:32:14.194Z,935.87
2017-08-01T00:32:42.258Z,935.86
2017-08-01T00:33:10.389Z,935.84
2017-08-01T00:33:38.469Z,935.83
2017-08-01T00:34:06.532Z,935.84
2017-08-01T00:34:34.494Z,935.86
2017-08-01T00:35:02.607Z,935.85
2017-08-01T00:35:30.678Z,935.82
2017-08-01T00:35:58.733Z,935.84
2017-08-01T00:36:26.845Z,935.81
2017-08-01T00:36:55.050Z,935.81
2017-08-01T00:37:23.380Z,935.81
2017-08-01T00:37:51.624Z,935.85
2017-08-01T00:38:19.774Z,935.82
2017-08-01T00:38:47.806Z,935.82
2017-08-01T00:39:15.922Z,935.81
2017-08-01T00:39:44.067Z,935.82
2017-08-01T00:40:12.311Z,935.81
2017-08-01T00:40:40.480Z,935.81
2017-08-01T00:41:08.550Z,935.82
2017-08-01T00:41:36.755Z,935.82
2017-08-01T00:42:04.863Z,935.74
2017-08-01T00:42:33.078Z,935.78
2017-08-01T00:43:01.099Z,935.77
2017-08-01T00:43:29.199Z,935.78
2017-08-01T00:43:57.381Z,935.77
2017-08-01T00:44:25.592Z,935.78
2017-08-01T00:44:53.819Z,935.75
2017-08-01T00:45:22.026Z,935.77
2017-08-01T00:45:50.158Z,935.75
2017-08-01T00:46:18.168Z,935.76
2017-08-01T00:46:46.299Z,935.77
2017-08-01T00:47:14.408Z,935.76
2017-08-01T00:47:42.725Z,935.75
2017-08-01T00:48:10.817Z,935.76
2017-08-01T00:48:38.925Z,935.72
2017-08-01T00:49:07.017Z,935.69
2017-08-01T00:49:35.026Z,935.71
2017-08-01T00:50:03.196Z,935.7
2017-08-01T00:50:31.421Z,935.73
2017-08-01T00:50:59.507Z,935.68
2017-08-01T00:51:27.529Z,935.7
2017-08-01T00:51:55.675Z,935.69
2017-08-01T00:52:23.886Z,935.66
2017-08-01T00:52:51.956Z,935.69
2017-08-01T00:53:20.154Z,935.66
2017-08-01T00:53:48.421Z,935.69
2017-08-01T00:54:16.446Z,935.67
2017-08-01T00:54:44.687Z,935.66
2017-08-01T00:55:12.872Z,935.68
2017-08-01T00:55:40.909Z,935.69
2017-08-01T00:56:09.009Z,935.69
2017-08-01T00:56:37.139Z,935.67
2017-08-01T00:57:05.336Z,935.65
2017-08-01T00:57:33.357Z,935.66
2017-08-01T00:58:01.590Z,935.68
2017-08-01T00:58:29.802Z,935.65
2017-08-01T00:58:58.007Z,935.64
2017-08-01T00:59:26.092Z,935.65
2017-08-01T00:59:54.266Z,935.67
2017-08-01T01:00:22.467Z,935.64
2017-08-01T01:00:50.684Z,935.68
2017-08-01T01:01:18.857Z,935.69
2017-08-01T01:01:47.064Z,935.71
2017-08-01T01:02:15.263Z,935.66
2017-08-01T01:02:43.585Z,935.67
2017-08-01T01:03:11.672Z,935.66
2017-08-01T01:03:39.737Z,935.67
2017-08-01T01:04:07.831Z,935.68
2017-08-01T01:04:35.938Z,935.65
2017-08-01T01:05:04.000Z,935.63
2017-08-01T01:05:32.189Z,935.65
2017-08-01T01:06:00.382Z,935.67
2017-08-01T01:06:28.442Z,935.66
2017-08-01T01:06:56.649Z,935.64
2017-08-01T01:07:24.774Z,935.68
2017-08-01T01:07:53.079Z,935.6
2017-08-01T01:08:21.232Z,935.66
2017-08-01T01:08:49.434Z,935.66
2017-08-01T01:09:17.621Z,935.65
2017-08-01T01:09:45.801Z,935.67
2017-08-01T01:10:13.834Z,935.67
2017-08-01T01:10:42.032Z,935.66
2017-08-01T01:11:10.285Z,935.68
2017-08-01T01:11:38.462Z,935.7
2017-08-01T01:12:06.713Z,935.69
2017-08-01T01:12:34.931Z,935.64
2017-08-01T01:13:03.127Z,935.62
2017-08-01T01:13:31.343Z,935.62
2017-08-01T01:13:59.445Z,935.63
2017-08-01T01:14:27.575Z,935.61
2017-08-01T01:14:55.634Z,935.62
2017-08-01T01:15:23.821Z,935.6
2017-08-01T01:15:51.971Z,935.61
2017-08-01T01:16:19.984Z,935.6
2017-08-01T01:16:48.074Z,935.6
2017-08-01T01:17:16.308Z,935.57
2017-08-01T01:17:44.407Z,935.59
2017-08-01T01:18:12.519Z,935.58
2017-08-01T01:18:40.537Z,935.61
2017-08-01T01:19:08.545Z,935.6
2017-08-01T01:19:36.559Z,935.62
2017-08-01T01:20:04.506Z,935.63
2017-08-01T01:20:32.579Z,935.61
2017-08-01T01:21:00.800Z,935.63
2017-08-01T01:21:28.891Z,935.64
2017-08-01T01:21:56.897Z,935.64
2017-08-01T01:22:25.068Z,935.63
2017-08-01T01:22:53.364Z,935.62
2017-08-01T01:23:21.537Z,935.68
2017-08-01T01:23:49.628Z,935.71
2017-08-01T01:24:17.778Z,935.68
2017-08-01T01:24:45.993Z,935.7
2017-08-01T01:25:13.900Z,935.7
2017-08-01T01:25:42.026Z,935.69
2017-08-01T01:26:10.229Z,935.66
2017-08-01T01:26:38.413Z,935.71
2017-08-01T01:27:06.893Z,935.7
2017-08-01T01:27:35.100Z,935.7
2017-08-01T01:28:03.356Z,935.72
2017-08-01T01:28:31.571Z,935.66
2017-08-01T01:28:59.682Z,935.69
2017-08-01T01:29:27.995Z,935.69
2017-08-01T01:29:56.079Z,935.69
2017-08-01T01:30:24.110Z,935.7
2017-08-01T01:30:52.167Z,935.66
2017-08-01T01:31:20.265Z,935.69
2017-08-01T01:31:48.521Z,935.7
2017-08-01T01:32:16.716Z,935.68
2017-08-01T01:32:44.862Z,935.69
2017-08-01T01:33:13.038Z,935.71
2017-08-01T01:33:41.104Z,935.72
2017-08-01T01:34:09.377Z,935.71
2017-08-01T01:34:37.550Z,935.71
2017-08-01T01:35:05.936Z,935.72
2017-08-01T01:35:34.145Z,935.71
2017-08-01T01:36:02.324Z,935.69
2017-08-01T01:36:30.411Z,935.73
2017-08-01T01:36:58.528Z,935.7
2017-08-01T01:37:26.621Z,935.71
2017-08-01T01:37:54.745Z,935.68
2017-08-01T01:38:22.961Z,935.67
2017-08-01T01:38:51.046Z,935.66
2017-08-01T01:39:19.093Z,935.69
2017-08-01T01:39:47.304Z,935.68
2017-08-01T01:40:15.525Z,935.69
2017-08-01T01:40:43.532Z,935.71
2017-08-01T01:41:11.709Z,935.69
2017-08-01T01:41:39.884Z,935.71
2017-08-01T01:42:08.055Z,935.74
2017-08-01T01:42:36.181Z,935.68
2017-08-01T01:43:04.524Z,935.73
2017-08-01T01:43:33.432Z,935.72
2017-08-01T01:44:01.533Z,935.69
2017-08-01T01:44:29.624Z,935.71
2017-08-01T01:44:57.686Z,935.71
2017-08-01T01:45:25.895Z,935.68
2017-08-01T01:45:54.004Z,935.7
2017-08-01T01:46:22.202Z,935.72
2017-08-01T01:46:50.182Z,935.68
2017-08-01T01:47:18.289Z,935.67
2017-08-01T01:47:46.412Z,935.67
2017-08-01T01:48:14.734Z,935.68
2017-08-01T01:48:42.719Z,935.7
2017-08-01T01:49:10.922Z,935.66
2017-08-01T01:49:39.129Z,935.68
2017-08-01T01:50:07.365Z,935.68
2017-08-01T01:50:35.500Z,935.68
2017-08-01T01:51:03.595Z,935.65
2017-08-01T01:51:31.843Z,935.68
2017-08-01T01:52:00.009Z,935.63
2017-08-01T01:52:28.087Z,935.67
2017-08-01T01:52:56.269Z,935.63
2017-08-01T01:53:24.556Z,935.64
2017-08-01T01:53:52.804Z,935.65
2017-08-01T01:54:20.779Z,935.62
2017-08-01T01:54:48.892Z,935.64
2017-08-01T01:55:16.915Z,935.64
2017-08-01T01:55:44.931Z,935.63
2017-08-01T01:56:13.059Z,935.6
2017-08-01T01:56:41.238Z,935.61
2017-08-01T01:57:09.222Z,935.57
2017-08-01T01:57:37.241Z,935.57
2017-08-01T01:58:05.524Z,935.57
2017-08-01T01:58:33.620Z,935.58
2017-08-01T01:59:01.818Z,935.59
2017-08-01T01:59:30.030Z,935.58
2017-08-01T01:59:58.143Z,935.57
2017-08-01T02:00:26.312Z,935.59
2017-08-01T02:00:54.408Z,935.6
2017-08-01T02:01:22.605Z,935.61
2017-08-01T02:01:50.621Z,935.61
2017-08-01T02:02:18.721Z,935.61
2017-08-01T02:02:46.919Z,935.59
2017-08-01T02:03:15.091Z,935.57
2017-08-01T02:03:43.293Z,935.58
2017-08-01T02:04:11.419Z,935.55
2017-08-01T02:04:39.464Z,935.56
2017-08-01T02:05:07.670Z,935.56
2017-08-01T02:05:35.603Z,935.53
2017-08-01T02:06:03.823Z,935.51
2017-08-01T02:06:31.908Z,935.53
2017-08-01T02:06:59.900Z,935.5
2017-08-01T02:07:28.090Z,935.51
2017-08-01T02:07:56.284Z,935.51
2017-08-01T02:08:24.718Z,935.51
2017-08-01T02:08:52.904Z,935.5
2017-08-01T02:09:20.998Z,935.51
2017-08-01T02:09:49.089Z,935.48
2017-08-01T02:10:17.196Z,935.49
2017-08-01T02:10:45.248Z,935.51
2017-08-01T02:11:13.250Z,935.48
2017-08-01T02:11:41.275Z,935.49
2017-08-01T02:12:09.511Z,935.5
2017-08-01T02:12:37.749Z,935.54
2017-08-01T02:13:05.828Z,935.5
2017-08-01T02:13:34.025Z,935.5
2017-08-01T02:14:02.147Z,935.51
2017-08-01T02:14:30.377Z,935.5
2017-08-01T02:14:58.395Z,935.48
2017-08-01T02:15:26.480Z,935.49
2017-08-01T02:15:54.642Z,935.51
2017-08-01T02:16:22.853Z,935.51
2017-08-01T02:16:50.897Z,935.53
2017-08-01T02:17:19.038Z,935.51
2017-08-01T02:17:47.205Z,935.51
2017-08-01T02:18:15.245Z,935.51
2017-08-01T02:18:43.481Z,935.52
2017-08-01T02:19:11.500Z,935.52
2017-08-01T02:19:39.696Z,935.55
2017-08-01T02:20:07.746Z,935.53
2017-08-01T02:20:35.899Z,935.55
2017-08-01T02:21:04.225Z,935.52
2017-08-01T02:21:32.454Z,935.51
2017-08-01T02:22:00.676Z,935.53
2017-08-01T02:22:28.687Z,935.56
2017-08-01T02:22:56.825Z,935.56
2017-08-01T02:23:25.165Z,935.53
2017-08-01T02:23:53.357Z,935.51
2017-08-01T02:24:21.486Z,935.52
2017-08-01T02:24:49.606Z,935.54
2017-08-01T02:25:17.716Z,935.56
2017-08-01T02:25:45.885Z,935.58
2017-08-01T02:26:14.086Z,935.58
2017-08-01T02:26:42.266Z,935.57
2017-08-01T02:27:10.398Z,935.59
2017-08-01T02:27:38.588Z,935.56
2017-08-01T02:28:06.568Z,935.55
2017-08-01T02:28:34.867Z,935.58
2017-08-01T02:29:03.021Z,935.57
2017-08-01T02:29:31.193Z,935.58
2017-08-01T02:29:59.323Z,935.55
2017-08-01T02:30:27.384Z,935.6
2017-08-01T02:30:55.491Z,935.59
2017-08-01T02:31:23.815Z,935.6
2017-08-01T02:31:51.973Z,935.58
2017-08-01T02:32:20.090Z,935.57
2017-08-01T02:32:47.984Z,935.61
2017-08-01T02:33:16.282Z,935.57
2017-08-01T02:33:44.553Z,935.59
2017-08-01T02:34:12.660Z,935.61
2017-08-01T02:34:40.779Z,935.61
2017-08-01T02:35:09.028Z,935.62
2017-08-01T02:35:37.205Z,935.61
2017-08-01T02:36:05.340Z,935.6
2017-08-01T02:36:33.557Z,935.56
2017-08-01T02:37:01.663Z,935.56
2017-08-01T02:37:29.690Z,935.56
2017-08-01T02:37:57.921Z,935.55
2017-08-01T02:38:26.045Z,935.57
2017-08-01T02:38:54.258Z,935.57
2017-08-01T02:39:22.239Z,935.55
2017-08-01T02:39:50.440Z,935.57
2017-08-01T02:40:18.620Z,935.58
2017-08-01T02:40:46.731Z,935.57
2017-08-01T02:41:14.973Z,935.57
2017-08-01T02:41:43.053Z,935.55
2017-08-01T02:42:11.227Z,935.61
2017-08-01T02:42:39.403Z,935.62
2017-08-01T02:43:07.579Z,935.57
2017-08-01T02:43:35.693Z,935.61
2017-08-01T02:44:03.774Z,935.62
2017-08-01T02:44:31.993Z,935.61
2017-08-01T02:45:00.126Z,935.62
2017-08-01T02:45:28.329Z,935.6
2017-08-01T02:45:56.448Z,935.62
2017-08-01T02:46:24.544Z,935.65
2017-08-01T02:46:52.643Z,935.63
2017-08-01T02:47:20.851Z,935.63
2017-08-01T02:47:48.933Z,935.69
2017-08-01T02:48:17.039Z,935.63
2017-08-01T02:48:45.178Z,935.64
2017-08-01T02:49:13.161Z,935.65
2017-08-01T02:49:41.299Z,935.64
2017-08-01T02:50:09.501Z,935.66
2017-08-01T02:50:37.518Z,935.61
2017-08-01T02:51:05.755Z,935.62
2017-08-01T02:51:33.841Z,935.63
2017-08-01T02:52:01.954Z,935.62
2017-08-01T02:52:30.048Z,935.59
2017-08-01T02:52:58.161Z,935.59
2017-08-01T02:53:26.331Z,935.54
2017-08-01T02:53:54.460Z,935.54
2017-08-01T02:54:22.585Z,935.55
2017-08-01T02:54:50.747Z,935.54
2017-08-01T02:55:18.861Z,935.52
2017-08-01T02:55:46.982Z,935.52
2017-08-01T02:56:15.196Z,935.51
2017-08-01T02:56:43.308Z,935.52
2017-08-01T02:57:11.361Z,935.54
2017-08-01T02:57:39.464Z,935.54
2017-08-01T02:58:07.592Z,935.52
2017-08-01T02:58:35.813Z,935.56
2017-08-01T02:59:04.061Z,935.53
2017-08-01T02:59:32.257Z,935.55
2017-08-01T03:00:00.405Z,935.55
2017-08-01T03:00:28.526Z,935.55
2017-08-01T03:00:56.711Z,935.59
2017-08-01T03:01:24.871Z,935.56
2017-08-01T03:01:52.873Z,935.59
2017-08-01T03:02:20.905Z,935.59
2017-08-01T03:02:49.001Z,935.6
2017-08-01T03:03:17.173Z,935.57
2017-08-01T03:03:45.252Z,935.56
2017-08-01T03:04:13.426Z,935.55
2017-08-01T03:04:41.621Z,935.54
2017-08-01T03:05:09.804Z,935.53
2017-08-01T03:05:37.889Z,935.52
2017-08-01T03:06:06.099Z,935.51
2017-08-01T03:06:34.300Z,935.51
2017-08-01T03:07:02.466Z,935.47
2017-08-01T03:07:30.638Z,935.49
2017-08-01T03:07:58.806Z,935.5
2017-08-01T03:08:27.011Z,935.51
2017-08-01T03:08:55.235Z,935.55
2017-08-01T03:09:23.405Z,935.51
2017-08-01T03:09:51.619Z,935.5
2017-08-01T03:10:19.723Z,935.52
2017-08-01T03:10:47.791Z,935.52
2017-08-01T03:11:15.893Z,935.53
2017-08-01T03:11:44.062Z,935.56
2017-08-01T03:12:12.214Z,935.53
2017-08-01T03:12:40.318Z,935.54
2017-08-01T03:13:08.421Z,935.55
2017-08-01T03:13:36.434Z,935.53
2017-08-01T03:14:04.619Z,935.5
2017-08-01T03:14:32.635Z,935.53
2017-08-01T03:15:00.813Z,935.55
2017-08-01T03:15:29.038Z,935.52
2017-08-01T03:15:57.242Z,935.52
2017-08-01T03:16:25.437Z,935.5
2017-08-01T03:16:53.523Z,935.49
2017-08-01T03:17:21.544Z,935.48
2017-08-01T03:17:49.696Z,935.51
2017-08-01T03:18:17.774Z,935.5
2017-08-01T03:18:45.841Z,935.52
2017-08-01T03:19:14.191Z,935.53
2017-08-01T03:19:42.184Z,935.5
2017-08-01T03:20:10.404Z,935.53
2017-08-01T03:20:38.414Z,935.49
2017-08-01T03:21:06.578Z,935.48
2017-08-01T03:21:34.695Z,935.47
2017-08-01T03:22:02.803Z,935.49
2017-08-01T03:22:30.905Z,935.5
2017-08-01T03:22:58.901Z,935.51
2017-08-01T03:23:27.019Z,935.51
2017-08-01T03:23:55.129Z,935.53
2017-08-01T03:24:23.247Z,935.51
2017-08-01T03:24:51.449Z,935.51
2017-08-01T03:25:19.595Z,935.5
2017-08-01T03:25:47.819Z,935.49
2017-08-01T03:26:15.881Z,935.51
2017-08-01T03:26:44.145Z,935.47
2017-08-01T03:27:12.182Z,935.49
2017-08-01T03:27:40.311Z,935.52
2017-08-01T03:28:08.429Z,935.52
2017-08-01T03:28:36.549Z,935.53
2017-08-01T03:29:04.712Z,935.56
2017-08-01T03:29:32.923Z,935.55
2017-08-01T03:30:01.082Z,935.53
2017-08-01T03:30:29.297Z,935.55
2017-08-01T03:30:57.509Z,935.57
2017-08-01T03:31:25.696Z,935.58
2017-08-01T03:31:53.909Z,935.57
2017-08-01T03:32:22.088Z,935.57
2017-08-01T03:32:50.326Z,935.6
2017-08-01T03:33:18.602Z,935.58
2017-08-01T03:33:46.739Z,935.6
2017-08-01T03:34:15.046Z,935.59
2017-08-01T03:34:43.231Z,935.57
2017-08-01T03:35:11.419Z,935.58
2017-08-01T03:35:39.680Z,935.6
2017-08-01T03:36:07.695Z,935.62
2017-08-01T03:36:35.894Z,935.63
2017-08-01T03:37:03.999Z,935.6
2017-08-01T03:37:32.150Z,935.65
2017-08-01T03:38:00.249Z,935.65
2017-08-01T03:38:28.315Z,935.61
2017-08-01T03:38:56.441Z,935.62
2017-08-01T03:39:24.539Z,935.62
2017-08-01T03:39:52.583Z,935.64
2017-08-01T03:40:20.760Z,935.62
2017-08-01T03:40:48.889Z,935.58
2017-08-01T03:41:16.978Z,935.57
2017-08-01T03:41:44.944Z,935.56
2017-08-01T03:42:12.953Z,935.55
2017-08-01T03:42:40.977Z,935.49
2017-08-01T03:43:09.068Z,935.51
2017-08-01T03:43:37.090Z,935.52
2017-08-01T03:44:05.278Z,935.49
2017-08-01T03:44:33.554Z,935.49
2017-08-01T03:45:01.766Z,935.51
2017-08-01T03:45:29.959Z,935.49
2017-08-01T03:45:58.028Z,935.49
2017-08-01T03:46:26.256Z,935.49
2017-08-01T03:46:54.435Z,935.48
2017-08-01T03:47:22.658Z,935.5
2017-08-01T03:47:50.730Z,935.5
2017-08-01T03:48:19.015Z,935.5
2017-08-01T03:48:47.124Z,935.52
2017-08-01T03:49:15.305Z,935.51
2017-08-01T03:49:43.533Z,935.46
2017-08-01T03:50:11.738Z,935.47
2017-08-01T03:50:40.020Z,935.49
2017-08-01T03:51:08.233Z,935.47
2017-08-01T03:51:36.419Z,935.5
2017-08-01T03:52:04.543Z,935.48
2017-08-01T03:52:32.684Z,935.46
2017-08-01T03:53:00.739Z,935.46
2017-08-01T03:53:28.919Z,935.43
2017-08-01T03:53:56.858Z,935.45
2017-08-01T03:54:25.180Z,935.43
2017-08-01T03:54:53.337Z,935.45
2017-08-01T03:55:21.513Z,935.45
2017-08-01T03:55:49.546Z,935.48
2017-08-01T03:56:17.748Z,935.47
2017-08-01T03:56:45.920Z,935.44
2017-08-01T03:57:14.088Z,935.48
2017-08-01T03:57:42.227Z,935.45
2017-08-01T03:58:10.419Z,935.46
2017-08-01T03:58:38.587Z,935.48
2017-08-01T03:59:06.712Z,935.46
2017-08-01T03:59:35.018Z,935.44
2017-08-01T04:00:03.027Z,935.49
2017-08-01T04:00:31.144Z,935.48
2017-08-01T04:00:59.349Z,935.48
2017-08-01T04:01:27.543Z,935.5
2017-08-01T04:01:55.741Z,935.48
2017-08-01T04:02:23.794Z,935.47
2017-08-01T04:02:51.683Z,935.44
2017-08-01T04:03:19.882Z,935.46
2017-08-01T04:03:48.094Z,935.46
2017-08-01T04:04:16.241Z,935.43
2017-08-01T04:04:44.542Z,935.46
2017-08-01T04:05:12.673Z,935.47
2017-08-01T04:05:40.871Z,935.45
2017-08-01T04:06:08.979Z,935.46
2017-08-01T04:06:37.176Z,935.44
2017-08-01T04:07:05.401Z,935.44
2017-08-01T04:07:33.360Z,935.47
2017-08-01T04:08:01.517Z,935.48
2017-08-01T04:08:29.696Z,935.49
2017-08-01T04:08:57.804Z,935.47
2017-08-01T04:09:26.071Z,935.49
2017-08-01T04:09:54.171Z,935.52
2017-08-01T04:10:22.348Z,935.5
2017-08-01T04:10:50.345Z,935.49
2017-08-01T04:11:18.446Z,935.49
2017-08-01T04:11:46.688Z,935.51
2017-08-01T04:12:14.897Z,935.53
2017-08-01T04:12:43.080Z,935.54
2017-08-01T04:13:11.308Z,935.53
2017-08-01T04:13:39.537Z,935.51
2017-08-01T04:14:07.653Z,935.53
2017-08-01T04:14:35.915Z,935.53
2017-08-01T04:15:04.163Z,935.5
2017-08-01T04:15:32.334Z,935.55
2017-08-01T04:16:00.561Z,935.51
2017-08-01T04:16:28.635Z,935.55
2017-08-01T04:16:56.723Z,935.51
2017-08-01T04:17:24.908Z,935.51
2017-08-01T04:17:53.046Z,935.49
2017-08-01T04:18:21.278Z,935.46
2017-08-01T04:18:49.471Z,935.52
2017-08-01T04:19:17.603Z,935.54
2017-08-01T04:19:45.978Z,935.53
2017-08-01T04:20:13.895Z,935.54
2017-08-01T04:20:42.083Z,935.53
2017-08-01T04:21:10.115Z,935.53
2017-08-01T04:21:38.317Z,935.49
2017-08-01T04:22:06.483Z,935.49
2017-08-01T04:22:34.685Z,935.49
2017-08-01T04:23:02.807Z,935.44
2017-08-01T04:23:30.902Z,935.43
2017-08-01T04:23:59.031Z,935.41
2017-08-01T04:24:27.156Z,935.43
2017-08-01T04:24:55.512Z,935.44
2017-08-01T04:25:23.513Z,935.41
2017-08-01T04:25:51.646Z,935.41
2017-08-01T04:26:19.663Z,935.35
2017-08-01T04:26:47.766Z,935.4
2017-08-01T04:27:15.780Z,935.39
2017-08-01T04:27:43.883Z,935.38
2017-08-01T04:28:11.986Z,935.38
2017-08-01T04:28:40.094Z,935.4
2017-08-01T04:29:08.192Z,935.37
2017-08-01T04:29:36.341Z,935.36
2017-08-01T04:30:04.476Z,935.38
2017-08-01T04:30:32.740Z,935.36
2017-08-01T04:31:00.763Z,935.37
2017-08-01T04:31:28.951Z,935.38
2017-08-01T04:31:57.170Z,935.37
2017-08-01T04:32:25.184Z,935.38
2017-08-01T04:32:53.244Z,935.35
2017-08-01T04:33:21.359Z,935.38
2017-08-01T04:33:49.486Z,935.39
2017-08-01T04:34:17.653Z,935.39
2017-08-01T04:34:45.832Z,935.38
2017-08-01T04:35:13.935Z,935.37
2017-08-01T04:35:42.164Z,935.36
2017-08-01T04:36:10.254Z,935.34
2017-08-01T04:36:38.466Z,935.37
2017-08-01T04:37:06.672Z,935.36
2017-08-01T04:37:34.917Z,935.34
2017-08-01T04:38:03.099Z,935.36
2017-08-01T04:38:31.209Z,935.37
2017-08-01T04:38:59.413Z,935.37
2017-08-01T04:39:27.444Z,935.37
2017-08-01T04:39:55.766Z,935.36
2017-08-01T04:40:23.876Z,935.36
2017-08-01T04:40:51.997Z,935.36
2017-08-01T04:41:20.093Z,935.33
2017-08-01T04:41:48.206Z,935.34
2017-08-01T04:42:16.379Z,935.34
2017-08-01T04:42:44.534Z,935.36
2017-08-01T04:43:12.757Z,935.35
2017-08-01T04:43:40.835Z,935.37
2017-08-01T04:44:09.062Z,935.34
2017-08-01T04:44:37.229Z,935.34
2017-08-01T04:45:05.553Z,935.33
2017-08-01T04:45:33.612Z,935.35
2017-08-01T04:46:01.703Z,935.31
2017-08-01T04:46:29.942Z,935.3
2017-08-01T04:46:58.144Z,935.29
2017-08-01T04:47:26.372Z,935.28
2017-08-01T04:47:54.528Z,935.32
2017-08-01T04:48:22.789Z,935.29
2017-08-01T04:48:50.804Z,935.28
2017-08-01T04:49:18.991Z,935.31
2017-08-01T04:49:47.121Z,935.26
2017-08-01T04:50:15.027Z,935.28
2017-08-01T04:50:43.021Z,935.27
2017-08-01T04:51:11.235Z,935.25
2017-08-01T04:51:39.346Z,935.29
2017-08-01T04:52:07.579Z,935.26
2017-08-01T04:52:35.776Z,935.26
2017-08-01T04:53:03.996Z,935.27
2017-08-01T04:53:32.157Z,935.25
2017-08-01T04:54:00.266Z,935.25
2017-08-01T04:54:28.399Z,935.23
2017-08-01T04:54:56.632Z,935.19
2017-08-01T04:55:24.855Z,935.21
2017-08-01T04:55:53.040Z,935.2
2017-08-01T04:56:21.146Z,935.2
2017-08-01T04:56:49.234Z,935.19
2017-08-01T04:57:17.436Z,935.17
2017-08-01T04:57:45.402Z,935.21
2017-08-01T04:58:13.498Z,935.2
2017-08-01T04:58:41.664Z,935.2
2017-08-01T04:59:09.776Z,935.18
2017-08-01T04:59:37.998Z,935.18
2017-08-01T05:00:06.314Z,935.2
2017-08-01T05:00:34.282Z,935.19
2017-08-01T05:01:02.443Z,935.15
2017-08-01T05:01:30.506Z,935.16
2017-08-01T05:01:58.501Z,935.15
2017-08-01T05:02:26.609Z,935.14
2017-08-01T05:02:54.805Z,935.13
2017-08-01T05:03:23.029Z,935.12
2017-08-01T05:03:51.180Z,935.14
2017-08-01T05:04:19.264Z,935.16
2017-08-01T05:04:47.484Z,935.14
2017-08-01T05:05:15.774Z,935.15
2017-08-01T05:05:43.865Z,935.14
2017-08-01T05:06:12.065Z,935.15
2017-08-01T05:06:40.052Z,935.14
2017-08-01T05:07:08.286Z,935.16
2017-08-01T05:07:36.549Z,935.15
2017-08-01T05:08:04.741Z,935.14
2017-08-01T05:08:32.804Z,935.13
2017-08-01T05:09:00.895Z,935.15
2017-08-01T05:09:29.026Z,935.14
2017-08-01T05:09:57.070Z,935.14
2017-08-01T05:10:25.374Z,935.15
2017-08-01T05:10:53.498Z,935.14
2017-08-01T05:11:21.534Z,935.12
2017-08-01T05:11:49.633Z,935.11
2017-08-01T05:12:17.818Z,935.11
2017-08-01T05:12:45.999Z,935.09
2017-08-01T05:13:14.121Z,935.1
2017-08-01T05:13:42.309Z,935.09
2017-08-01T05:14:10.470Z,935.06
2017-08-01T05:14:38.492Z,935.05
2017-08-01T05:15:06.704Z,935.06
2017-08-01T05:15:34.878Z,935.07
2017-08-01T05:16:02.831Z,935.03
2017-08-01T05:16:31.035Z,935.06
2017-08-01T05:16:59.184Z,935.02
2017-08-01T05:17:27.284Z,935.02
2017-08-01T05:17:55.318Z,935.02
2017-08-01T05:18:23.512Z,935.03
2017-08-01T05:18:51.512Z,934.98
2017-08-01T05:19:19.690Z,934.99
2017-08-01T05:19:47.915Z,934.98
2017-08-01T05:20:16.295Z,934.98
2017-08-01T05:20:44.371Z,934.98
2017-08-01T05:21:12.570Z,934.96
2017-08-01T05:21:40.701Z,934.96
2017-08-01T05:22:08.909Z,935
2017-08-01T05:22:37.124Z,934.93
2017-08-01T05:23:05.236Z,934.91
2017-08-01T05:23:33.341Z,934.9
2017-08-01T05:24:01.464Z,934.92
2017-08-01T05:24:29.615Z,934.87
2017-08-01T05:24:57.733Z,934.86
2017-08-01T05:25:25.730Z,934.89
2017-08-01T05:25:53.813Z,934.87
2017-08-01T05:26:21.901Z,934.85
2017-08-01T05:26:49.925Z,934.86
2017-08-01T05:27:17.912Z,934.87
2017-08-01T05:27:46.070Z,934.81
2017-08-01T05:28:14.056Z,934.87
2017-08-01T05:28:42.084Z,934.83
2017-08-01T05:29:10.184Z,934.82
2017-08-01T05:29:38.150Z,934.83
2017-08-01T05:30:06.237Z,934.8
2017-08-01T05:30:34.373Z,934.81
2017-08-01T05:31:02.498Z,934.79
2017-08-01T05:31:30.585Z,934.82
2017-08-01T05:31:58.743Z,934.79
2017-08-01T05:32:26.734Z,934.81
2017-08-01T05:32:54.931Z,934.78
2017-08-01T05:33:23.016Z,934.76
2017-08-01T05:33:50.983Z,934.77
2017-08-01T05:34:19.083Z,934.75
2017-08-01T05:34:47.243Z,934.78
2017-08-01T05:35:15.410Z,934.77
2017-08-01T05:35:43.610Z,934.76
2017-08-01T05:36:11.755Z,934.76
2017-08-01T05:36:39.802Z,934.72
2017-08-01T05:37:07.838Z,934.74
2017-08-01T05:37:35.953Z,934.73
2017-08-01T05:38:04.159Z,934.7
2017-08-01T05:38:32.352Z,934.73
2017-08-01T05:39:00.437Z,934.71
2017-08-01T05:39:28.608Z,934.71
2017-08-01T05:39:56.875Z,934.69
2017-08-01T05:40:25.163Z,934.7
2017-08-01T05:40:53.362Z,934.67
2017-08-01T05:41:21.615Z,934.63
2017-08-01T05:41:49.817Z,934.65
2017-08-01T05:42:17.974Z,934.65
2017-08-01T05:42:46.027Z,934.66
2017-08-01T05:43:14.226Z,934.61
2017-08-01T05:43:42.428Z,934.62
2017-08-01T05:44:10.634Z,934.58
2017-08-01T05:44:38.841Z,934.58
2017-08-01T05:45:06.962Z,934.57
2017-08-01T05:45:35.166Z,934.6
2017-08-01T05:46:03.189Z,934.61
2017-08-01T05:46:31.390Z,934.6
2017-08-01T05:46:59.634Z,934.64
2017-08-01T05:47:27.642Z,934.58
2017-08-01T05:47:55.843Z,934.59
2017-08-01T05:48:23.993Z,934.58
2017-08-01T05:48:52.090Z,934.55
2017-08-01T05:49:20.272Z,934.56
2017-08-01T05:49:48.336Z,934.56
2017-08-01T05:50:16.513Z,934.59
2017-08-01T05:50:44.795Z,934.56
2017-08-01T05:51:12.903Z,934.53
2017-08-01T05:51:41.042Z,934.53
2017-08-01T05:52:09.072Z,934.52